CheckWX is a tool to help pilots better visualize weather data.  It is not intended as a substitute for an official pre-flight weather briefing.

08:19:52 UTC

UAKK METAR
Sary-Arka Airport
Karaganda, Kazakhstan
Current

50 mins ago

UAKK 280730Z 07005MPS 030V140 CAVOK 22/02 Q1022 R05/0///70 NOSIG RMK QFE719/0959
Observed
May-28 @ 07:30 UTC
Wind
  • 070° at 10 KTS
Visibility
10,000+ meters
Flight Rules
VFR
Cloud Levels
  • Clear skies
Temperature
22°C / 72°F
Dewpoint
C / 36°F
Humidity
27%
Altimeter
30.18" Hg
Pressure
1021.92 hPa
Previous

1 hour ago

UAKK 280700Z 08005MPS 040V130 CAVOK 21/M01 Q1023 R05/0///70 NOSIG RMK QFE720/0960
Observed
May-28 @ 07:00 UTC
Wind
  • 080° at 10 KTS
Visibility
10,000+ meters
Flight Rules
VFR
Cloud Levels
  • Clear skies
Temperature
21°C / 70°F
Dewpoint
-1°C / 30°F
Humidity
23%
Altimeter
30.21" Hg
Pressure
1022.92 hPa
Previous

2 hours ago

UAKK 280630Z 08005MPS 040V130 CAVOK 20/01 Q1023 R05/0///70 NOSIG RMK QFE720/0960
Observed
May-28 @ 06:30 UTC
Wind
  • 080° at 10 KTS
Visibility
10,000+ meters
Flight Rules
VFR
Cloud Levels
  • Clear skies
Temperature
20°C / 68°F
Dewpoint
C / 34°F
Humidity
28%
Altimeter
30.21" Hg
Pressure
1022.92 hPa